Time;durP1;ratioP1;P1;durP2;ratioP2;P2;SDS_P1;SDS_P2;PMS_P1;PMS_P2;Temp;Humidity;BMP_temperature;BMP_pressure;BME280_temperature;BME280_humidity;BME280_pressure;Samples;Min_cycle;Max_cycle;Signal;HPM_P1;HPM_P2
2023/09/29 00:02:22;;;;;;;3.73;3.03;;;14.20;14.20;;;;;;5052165;28;20177;-68
2023/09/29 00:04:48;;;;;;;5.47;2.57;;;14.20;15.20;;;;;;5051748;28;20408;-68
2023/09/29 00:07:13;;;;;;;5.23;3.03;;;14.20;15.30;;;;;;5051739;28;20279;-68
2023/09/29 00:09:39;;;;;;;4.90;2.67;;;14.10;15.80;;;;;;5052049;28;20236;-67
2023/09/29 00:12:04;;;;;;;6.70;2.90;;;14.00;16.10;;;;;;5051968;28;20706;-68
2023/09/29 00:14:30;;;;;;;3.97;2.70;;;14.00;16.80;;;;;;5051503;28;20258;-67
2023/09/29 00:16:55;;;;;;;4.30;2.80;;;13.90;16.80;;;;;;5051971;28;20236;-68
2023/09/29 00:19:22;;;;;;;4.70;2.53;;;13.90;16.70;;;;;;5051723;28;20201;-68
2023/09/29 00:21:48;;;;;;;5.67;3.70;;;13.80;17.90;;;;;;5052140;28;20171;-68
2023/09/29 00:24:14;;;;;;;5.43;3.80;;;13.80;17.90;;;;;;5051826;28;20411;-68
2023/09/29 00:26:39;;;;;;;5.33;2.73;;;13.80;17.70;;;;;;5051610;28;20986;-68
2023/09/29 00:29:05;;;;;;;6.57;2.60;;;13.80;17.50;;;;;;5051962;28;20202;-67
2023/09/29 00:31:32;;;;;;;4.73;2.87;;;13.90;16.80;;;;;;5051946;28;20226;-67
2023/09/29 00:33:57;;;;;;;5.30;2.73;;;13.80;17.20;;;;;;5051600;28;20321;-68
2023/09/29 00:36:23;;;;;;;4.83;3.27;;;13.80;17.30;;;;;;5051850;28;20971;-68
2023/09/29 00:38:48;;;;;;;3.00;2.50;;;13.80;17.30;;;;;;5051892;28;20185;-67
2023/09/29 00:41:14;;;;;;;4.73;2.53;;;13.80;17.20;;;;;;5051899;28;20252;-67
2023/09/29 00:43:40;;;;;;;4.87;2.73;;;13.80;17.30;;;;;;5051546;28;20661;-68
2023/09/29 00:46:06;;;;;;;4.03;2.57;;;13.70;17.50;;;;;;5051690;28;20243;-67
2023/09/29 00:48:33;;;;;;;4.20;2.43;;;13.70;17.90;;;;;;5051631;28;20440;-67
2023/09/29 00:50:59;;;;;;;9.57;3.23;;;13.70;18.20;;;;;;5051486;28;20472;-68
2023/09/29 00:53:28;;;;;;;3.47;2.80;;;13.70;18.50;;;;;;5051346;28;20426;-69
2023/09/29 00:55:54;;;;;;;6.93;3.83;;;13.60;18.60;;;;;;5051537;28;20765;-68
2023/09/29 00:58:21;;;;;;;4.17;3.00;;;13.60;19.00;;;;;;5051184;28;20900;-67
2023/09/29 01:00:47;;;;;;;3.70;2.40;;;13.50;19.40;;;;;;5051217;28;20786;-68
2023/09/29 01:03:14;;;;;;;3.90;2.80;;;13.40;20.10;;;;;;5051367;28;20452;-68
2023/09/29 01:05:46;;;;;;;4.63;3.60;;;13.30;20.30;;;;;;5051058;28;20456;-68
2023/09/29 01:08:15;;;;;;;5.27;2.80;;;13.30;20.70;;;;;;5051370;28;20418;-68
2023/09/29 01:10:41;;;;;;;4.43;3.60;;;13.30;20.60;;;;;;5050939;28;20447;-68
2023/09/29 01:13:08;;;;;;;3.70;2.90;;;13.30;20.70;;;;;;5051162;28;20413;-68
2023/09/29 01:15:34;;;;;;;5.00;3.27;;;13.30;20.60;;;;;;5051045;28;20416;-68
2023/09/29 01:18:01;;;;;;;3.97;2.90;;;13.30;20.70;;;;;;5051186;28;20416;-71
2023/09/29 01:20:28;;;;;;;7.10;2.50;;;13.30;20.90;;;;;;5051181;28;20429;-68
2023/09/29 01:23:01;;;;;;;4.70;2.47;;;13.30;21.00;;;;;;5051392;28;20447;-68
2023/09/29 01:25:27;;;;;;;3.80;2.70;;;13.40;20.70;;;;;;5051125;28;20502;-68
2023/09/29 01:27:54;;;;;;;5.77;2.87;;;13.40;20.70;;;;;;5051545;28;20870;-67
2023/09/29 01:30:20;;;;;;;3.90;3.10;;;13.30;20.60;;;;;;5051544;28;20521;-68
2023/09/29 01:32:48;;;;;;;5.00;3.17;;;13.30;20.00;;;;;;5051159;28;20422;-68
2023/09/29 01:35:16;;;;;;;5.40;2.77;;;13.30;20.40;;;;;;5051036;28;20513;-68
2023/09/29 01:37:44;;;;;;;11.03;3.60;;;13.40;20.10;;;;;;5051018;28;20943;-67
2023/09/29 01:40:10;;;;;;;4.37;2.93;;;13.30;20.60;;;;;;5050943;28;20800;-68
2023/09/29 01:42:36;;;;;;;4.30;3.10;;;13.30;20.70;;;;;;5051215;28;20766;-68
2023/09/29 01:45:11;;;;;;;4.07;3.20;;;13.30;21.30;;;;;;5051000;28;20429;-69
2023/09/29 01:47:43;;;;;;;4.73;3.40;;;13.20;21.00;;;;;;5054066;28;20431;-69
2023/09/29 01:50:10;;;;;;;4.40;3.17;;;13.20;21.10;;;;;;5054453;28;20457;-69
2023/09/29 01:52:36;;;;;;;4.93;3.60;;;13.10;21.30;;;;;;5054429;28;20444;-69
2023/09/29 01:55:12;;;;;;;6.30;3.13;;;13.20;21.20;;;;;;5054420;28;20410;-69
2023/09/29 01:57:41;;;;;;;4.20;3.43;;;13.20;20.70;;;;;;5054402;28;20911;-66
2023/09/29 02:00:10;;;;;;;5.80;4.80;;;13.20;20.50;;;;;;5054136;28;20424;-66
2023/09/29 02:02:36;;;;;;;3.90;2.90;;;13.20;20.60;;;;;;5054152;28;20960;-66
2023/09/29 02:05:02;;;;;;;6.10;2.87;;;13.20;21.30;;;;;;5054114;28;20500;-69
2023/09/29 02:07:27;;;;;;;4.07;3.10;;;13.10;21.20;;;;;;5054436;28;20217;-69
2023/09/29 02:09:53;;;;;;;4.00;2.53;;;13.10;21.20;;;;;;5078439;22;20261;-69
2023/09/29 02:12:19;;;;;;;3.70;2.40;;;13.00;21.70;;;;;;5074334;28;20190;-69
2023/09/29 02:14:44;;;;;;;4.60;2.67;;;12.90;22.40;;;;;;5074257;28;20180;-70
2023/09/29 02:17:10;;;;;;;5.50;2.40;;;12.90;22.80;;;;;;5074608;28;20171;-71
2023/09/29 02:19:36;;;;;;;3.90;2.80;;;12.90;23.00;;;;;;5074322;28;20181;-70
2023/09/29 02:22:07;;;;;;;5.00;3.00;;;12.80;23.10;;;;;;5074378;28;20645;-70
2023/09/29 02:24:33;;;;;;;5.30;3.67;;;12.80;24.40;;;;;;5074148;28;20176;-69
2023/09/29 02:26:59;;;;;;;4.37;2.70;;;12.80;24.50;;;;;;5074223;28;20874;-70
2023/09/29 02:29:26;;;;;;;5.07;3.13;;;12.70;24.50;;;;;;5074038;28;20510;-70
2023/09/29 02:31:51;;;;;;;3.50;3.10;;;12.70;24.90;;;;;;5073925;28;20471;-70
2023/09/29 02:34:17;;;;;;;4.70;2.90;;;12.70;24.40;;;;;;5072453;28;20423;-71
2023/09/29 02:36:42;;;;;;;4.20;3.10;;;12.70;24.80;;;;;;5073979;28;20174;-71
2023/09/29 02:39:08;;;;;;;6.40;3.60;;;12.60;25.40;;;;;;5073989;28;20221;-69
2023/09/29 02:41:34;;;;;;;5.50;2.73;;;12.60;25.80;;;;;;5073910;28;20214;-70
2023/09/29 02:44:01;;;;;;;5.00;3.30;;;12.60;25.10;;;;;;5072297;28;20425;-70
2023/09/29 02:46:27;;;;;;;4.77;3.30;;;12.60;26.40;;;;;;5072424;28;20451;-70
2023/09/29 02:48:52;;;;;;;5.23;3.20;;;12.60;27.00;;;;;;5072502;28;20982;-71
2023/09/29 02:51:19;;;;;;;6.03;3.50;;;12.50;27.30;;;;;;5073793;28;20190;-70
2023/09/29 02:53:48;;;;;;;4.07;2.97;;;12.40;27.80;;;;;;5073621;28;20166;-70
2023/09/29 02:56:16;;;;;;;5.13;3.37;;;12.40;27.90;;;;;;5073827;28;20440;-70
2023/09/29 02:58:43;;;;;;;4.57;3.17;;;12.40;28.00;;;;;;5072347;28;20427;-70
2023/09/29 03:01:12;;;;;;;3.80;3.03;;;12.30;28.30;;;;;;5073537;28;20432;-70
2023/09/29 03:03:43;;;;;;;5.30;2.80;;;12.30;29.00;;;;;;5073336;28;20666;-70
2023/09/29 03:06:20;;;;;;;6.37;3.90;;;12.40;28.90;;;;;;5073177;28;20459;-70
2023/09/29 03:08:49;;;;;;;3.93;2.50;;;12.40;27.90;;;;;;5072043;28;20422;-70
2023/09/29 03:11:16;;;;;;;4.00;2.77;;;12.50;27.80;;;;;;5072999;28;20451;-70
2023/09/29 03:13:41;;;;;;;4.07;3.37;;;12.40;28.40;;;;;;5072858;28;20415;-70
2023/09/29 03:16:10;;;;;;;4.40;3.30;;;12.40;29.60;;;;;;5073198;28;20408;-70
2023/09/29 03:18:36;;;;;;;3.80;3.00;;;12.40;28.40;;;;;;5073292;28;20178;-70
2023/09/29 03:21:04;;;;;;;3.93;3.50;;;12.40;28.40;;;;;;5073410;28;20436;-70
2023/09/29 03:23:33;;;;;;;5.03;3.10;;;12.40;28.90;;;;;;5071906;28;20228;-70
2023/09/29 03:25:59;;;;;;;6.07;3.97;;;12.40;28.40;;;;;;5073454;28;20508;-70
2023/09/29 03:28:25;;;;;;;4.87;3.43;;;12.30;28.90;;;;;;5072979;28;20424;-70
2023/09/29 03:30:51;;;;;;;4.30;3.10;;;12.30;27.20;;;;;;5072707;28;20660;-70
2023/09/29 03:33:17;;;;;;;4.77;3.30;;;12.30;27.30;;;;;;5073325;28;20512;-70
2023/09/29 03:35:43;;;;;;;5.73;3.93;;;12.30;26.90;;;;;;5072844;28;20446;-70
2023/09/29 03:38:08;;;;;;;5.17;3.37;;;12.30;27.30;;;;;;5071507;28;20227;-70
2023/09/29 03:40:34;;;;;;;4.73;3.30;;;12.20;26.50;;;;;;5072082;28;20501;-70
2023/09/29 03:43:01;;;;;;;3.60;2.80;;;12.10;28.90;;;;;;5074186;28;20185;-70
2023/09/29 03:45:27;;;;;;;5.97;3.30;;;12.10;28.20;;;;;;5072754;28;20177;-71
2023/09/29 03:47:52;;;;;;;4.83;3.03;;;12.20;28.20;;;;;;5072894;28;20412;-70
2023/09/29 03:50:18;;;;;;;6.27;3.40;;;12.20;27.50;;;;;;5072711;28;20396;-70
2023/09/29 03:52:46;;;;;;;4.70;3.77;;;12.10;27.70;;;;;;5072612;28;20632;-70
2023/09/29 03:55:12;;;;;;;4.50;3.23;;;12.10;28.20;;;;;;5072286;28;20166;-70
2023/09/29 03:57:38;;;;;;;4.73;3.60;;;12.10;28.20;;;;;;5072304;28;20415;-71
2023/09/29 04:00:12;;;;;;;4.77;2.83;;;12.10;27.50;;;;;;5072213;28;20432;-71
2023/09/29 04:02:40;;;;;;;4.93;3.43;;;12.10;27.40;;;;;;5072273;28;20419;-71
2023/09/29 04:05:05;;;;;;;8.60;2.90;;;12.10;27.40;;;;;;5072161;28;20533;-71
2023/09/29 04:07:31;;;;;;;5.60;3.73;;;12.10;28.20;;;;;;5072253;28;20527;-70
2023/09/29 04:09:56;;;;;;;4.97;3.80;;;12.10;28.20;;;;;;5070263;28;20220;-71
2023/09/29 04:12:22;;;;;;;5.10;3.10;;;12.10;27.20;;;;;;5070930;28;20174;-71
2023/09/29 04:14:48;;;;;;;6.67;3.20;;;12.00;27.70;;;;;;5072134;28;20640;-71
2023/09/29 04:17:13;;;;;;;4.77;3.67;;;11.90;28.00;;;;;;5072308;28;20170;-71
2023/09/29 04:19:39;;;;;;;5.63;2.93;;;11.90;30.00;;;;;;5070773;28;20177;-70
2023/09/29 04:22:04;;;;;;;6.07;3.83;;;11.90;29.50;;;;;;5072324;28;20636;-70
2023/09/29 04:24:33;;;;;;;6.83;2.63;;;11.90;30.00;;;;;;5072006;28;20697;-71
2023/09/29 04:26:59;;;;;;;5.80;4.17;;;12.00;29.90;;;;;;5071062;28;20801;-70
2023/09/29 04:29:25;;;;;;;6.50;3.60;;;11.90;30.50;;;;;;5070710;28;20503;-70
2023/09/29 04:31:50;;;;;;;4.60;3.97;;;11.80;30.40;;;;;;5072259;28;20636;-70
2023/09/29 04:34:16;;;;;;;5.33;3.60;;;11.90;32.10;;;;;;5072389;28;20628;-70
2023/09/29 04:36:42;;;;;;;4.30;2.97;;;11.80;32.50;;;;;;5072442;28;20257;-70
2023/09/29 04:39:08;;;;;;;5.53;3.90;;;11.80;32.50;;;;;;5071317;28;20197;-70
2023/09/29 04:41:33;;;;;;;4.10;3.30;;;11.70;33.30;;;;;;5071071;28;20647;-69
2023/09/29 04:44:00;;;;;;;7.53;3.80;;;11.70;32.80;;;;;;5071958;28;20690;-70
2023/09/29 04:46:26;;;;;;;6.10;4.30;;;11.70;33.50;;;;;;5070784;28;20213;-70
2023/09/29 04:48:53;;;;;;;4.40;3.93;;;11.60;35.00;;;;;;5070664;28;20515;-71
2023/09/29 04:51:20;;;;;;;5.30;3.50;;;11.70;35.40;;;;;;5071891;28;20589;-70
2023/09/29 04:53:45;;;;;;;5.33;3.10;;;11.60;35.00;;;;;;5070253;28;20459;-71
2023/09/29 04:56:11;;;;;;;4.50;3.10;;;11.60;35.90;;;;;;5070600;28;20835;-70
2023/09/29 04:58:37;;;;;;;5.30;2.77;;;11.70;32.40;;;;;;5070520;28;20710;-71
2023/09/29 05:01:02;;;;;;;5.47;3.60;;;11.80;32.60;;;;;;5071806;28;20435;-70
2023/09/29 05:03:28;;;;;;;6.13;4.30;;;11.70;32.50;;;;;;5071690;28;20177;-70
2023/09/29 05:05:54;;;;;;;5.90;4.03;;;11.80;31.80;;;;;;5070406;28;20213;-69
2023/09/29 05:08:19;;;;;;;5.13;3.37;;;11.80;30.40;;;;;;5071977;28;20220;-68
2023/09/29 05:10:45;;;;;;;5.93;4.33;;;11.80;30.00;;;;;;5071648;28;20249;-70
2023/09/29 05:13:10;;;;;;;4.67;3.60;;;11.90;29.30;;;;;;5071925;28;20181;-70
2023/09/29 05:15:36;;;;;;;5.17;3.47;;;11.80;29.40;;;;;;5070542;28;20178;-69
2023/09/29 05:18:02;;;;;;;6.07;3.87;;;11.80;29.40;;;;;;5072055;28;20641;-70
2023/09/29 05:20:28;;;;;;;6.97;4.33;;;11.90;29.00;;;;;;5071751;28;20444;-70
2023/09/29 05:22:54;;;;;;;10.00;3.57;;;11.90;28.20;;;;;;5075249;28;20435;-70
2023/09/29 05:25:19;;;;;;;5.43;4.20;;;12.00;28.10;;;;;;5075349;28;20212;-70
2023/09/29 05:27:45;;;;;;;4.70;3.30;;;12.00;28.10;;;;;;5075546;28;20170;-70
2023/09/29 05:30:12;;;;;;;5.97;4.00;;;12.00;26.60;;;;;;5075297;28;20281;-70
2023/09/29 05:32:38;;;;;;;5.67;3.37;;;12.10;26.50;;;;;;5075541;28;20231;-69
2023/09/29 05:35:04;;;;;;;5.73;3.33;;;12.10;26.50;;;;;;5075413;28;20412;-70
2023/09/29 05:37:32;;;;;;;6.30;3.37;;;12.10;25.90;;;;;;5075502;28;20419;-71
2023/09/29 05:40:02;;;;;;;5.83;3.63;;;12.20;25.70;;;;;;5074154;28;20966;-71
2023/09/29 05:42:29;;;;;;;5.70;4.03;;;12.20;24.90;;;;;;5075558;28;20442;-70
2023/09/29 05:44:54;;;;;;;6.73;4.60;;;12.20;25.40;;;;;;5074333;28;20796;-70
2023/09/29 05:47:20;;;;;;;6.20;4.13;;;12.20;25.90;;;;;;5076456;28;20463;-70
2023/09/29 05:49:46;;;;;;;7.63;5.70;;;12.30;25.30;;;;;;5083268;28;20737;-69
2023/09/29 05:52:11;;;;;;;8.07;4.80;;;12.40;24.20;;;;;;5076778;28;20515;-71
2023/09/29 05:54:37;;;;;;;7.27;4.63;;;12.40;24.70;;;;;;5077569;28;20182;-70
2023/09/29 05:57:03;;;;;;;6.30;3.60;;;12.50;24.30;;;;;;5077037;28;20170;-71
2023/09/29 05:59:29;;;;;;;6.17;3.40;;;12.60;24.40;;;;;;5075791;28;20182;-71
2023/09/29 06:01:55;;;;;;;5.77;3.90;;;12.80;24.60;;;;;;5076079;28;20174;-71
2023/09/29 06:04:22;;;;;;;6.20;4.77;;;12.90;23.70;;;;;;5076049;28;20416;-71
2023/09/29 06:06:48;;;;;;;6.27;3.87;;;13.00;22.70;;;;;;5075800;28;20454;-71
2023/09/29 06:09:13;;;;;;;6.60;4.10;;;13.10;22.50;;;;;;5080530;28;20481;-71
2023/09/29 06:11:39;;;;;;;5.20;3.27;;;13.20;21.70;;;;;;5076898;28;20504;-71
2023/09/29 06:14:05;;;;;;;7.80;4.30;;;13.30;21.50;;;;;;5075669;28;20175;-71
2023/09/29 06:16:31;;;;;;;5.30;4.10;;;13.40;21.10;;;;;;5074953;28;20180;-71
2023/09/29 06:18:56;;;;;;;6.80;5.60;;;13.50;20.20;;;;;;5074868;28;20966;-71
2023/09/29 06:21:22;;;;;;;10.20;5.40;;;13.50;19.90;;;;;;5074513;28;20204;-71
2023/09/29 06:23:48;;;;;;;6.00;4.63;;;13.60;19.50;;;;;;5073949;28;20173;-70
2023/09/29 06:26:14;;;;;;;9.93;5.73;;;13.80;18.40;;;;;;5074009;28;20456;-71
2023/09/29 06:28:39;;;;;;;5.97;4.60;;;13.90;18.40;;;;;;5074261;28;20416;-71
2023/09/29 06:31:06;;;;;;;8.53;5.23;;;14.10;16.90;;;;;;5072460;28;20295;-70
2023/09/29 06:33:32;;;;;;;7.60;5.07;;;14.30;17.00;;;;;;5073481;28;20172;-70
2023/09/29 06:35:57;;;;;;;8.47;5.63;;;14.30;16.20;;;;;;5073703;28;20519;-70
2023/09/29 06:38:23;;;;;;;14.60;4.87;;;14.40;15.40;;;;;;5074000;28;20907;-70
2023/09/29 06:40:48;;;;;;;7.47;4.50;;;14.60;14.80;;;;;;5073902;28;20675;-71
2023/09/29 06:43:16;;;;;;;8.80;4.93;;;14.80;12.50;;;;;;5073593;28;20169;-71
2023/09/29 06:45:41;;;;;;;10.60;4.80;;;15.00;10.30;;;;;;5073366;28;20200;-73
2023/09/29 06:48:07;;;;;;;7.20;4.93;;;15.30;9.30;;;;;;5073292;28;20435;-70
2023/09/29 06:50:32;;;;;;;5.40;3.70;;;15.60;9.10;;;;;;5073331;28;20555;-70
2023/09/29 06:52:59;;;;;;;7.07;4.17;;;16.00;6.40;;;;;;5073516;28;20198;-70
2023/09/29 06:55:24;;;;;;;6.47;3.73;;;16.40;4.90;;;;;;5073190;28;20177;-71
2023/09/29 06:57:50;;;;;;;5.47;3.73;;;17.00;2.00;;;;;;5073373;28;20404;-73
2023/09/29 07:00:15;;;;;;;6.93;4.77;;;17.50;1.00;;;;;;5073123;28;20190;-70
2023/09/29 07:02:41;;;;;;;8.97;4.67;;;18.10;1.00;;;;;;5073079;28;20235;-71
2023/09/29 07:05:07;;;;;;;5.47;3.80;;;18.60;1.00;;;;;;5071637;28;20205;-71
2023/09/29 07:07:33;;;;;;;5.60;3.50;;;18.80;1.00;;;;;;5072999;28;20572;-71
2023/09/29 07:09:59;;;;;;;7.27;4.90;;;19.10;1.00;;;;;;5071767;28;20206;-71
2023/09/29 07:12:24;;;;;;;7.07;4.00;;;19.20;1.00;;;;;;5071824;28;20420;-71
2023/09/29 07:14:51;;;;;;;5.63;4.27;;;19.20;1.00;;;;;;5072844;28;20241;-70
2023/09/29 07:17:17;;;;;;;6.53;4.33;;;19.20;1.00;;;;;;5072927;28;20408;-70
2023/09/29 07:19:43;;;;;;;8.90;5.20;;;19.20;1.00;;;;;;5071560;28;20227;-71
2023/09/29 07:22:09;;;;;;;4.90;4.00;;;19.30;1.00;;;;;;5073258;28;20400;-70
2023/09/29 07:24:34;;;;;;;5.50;4.20;;;19.40;1.00;;;;;;5072540;28;20408;-71
2023/09/29 07:27:00;;;;;;;7.23;4.13;;;19.50;1.00;;;;;;5072505;28;20201;-70
2023/09/29 07:29:25;;;;;;;4.77;3.77;;;19.70;1.00;;;;;;5072606;28;20444;-69
2023/09/29 07:31:51;;;;;;;7.60;5.07;;;19.90;1.00;;;;;;5072515;28;20592;-71
2023/09/29 07:34:17;;;;;;;5.73;4.60;;;20.10;1.00;;;;;;5072358;28;20621;-71
2023/09/29 07:36:44;;;;;;;7.17;5.13;;;20.30;1.00;;;;;;5072607;28;20656;-71
2023/09/29 07:39:14;;;;;;;8.63;5.50;;;20.40;1.00;;;;;;5072453;28;20413;-70
2023/09/29 07:41:40;;;;;;;5.30;4.27;;;20.50;1.00;;;;;;5072376;28;20850;-70
2023/09/29 07:44:09;;;;;;;7.20;4.50;;;20.50;1.00;;;;;;5071590;28;20465;-70
2023/09/29 07:46:35;;;;;;;9.07;4.50;;;20.70;1.00;;;;;;5072273;28;20452;-70
2023/09/29 07:49:02;;;;;;;7.07;5.20;;;20.70;1.00;;;;;;5071020;28;20413;-72
2023/09/29 07:51:28;;;;;;;9.47;4.63;;;21.00;1.00;;;;;;5072177;28;20455;-70
2023/09/29 07:53:54;;;;;;;6.07;4.87;;;21.50;1.00;;;;;;5070827;28;20759;-70
2023/09/29 07:56:19;;;;;;;6.80;5.10;;;22.00;1.00;;;;;;5072208;28;20416;-71
2023/09/29 07:58:45;;;;;;;6.87;4.90;;;22.30;1.00;;;;;;5072327;28;20706;-72
2023/09/29 08:01:11;;;;;;;4.83;4.33;;;22.40;1.00;;;;;;5070766;28;20204;-70
2023/09/29 08:03:36;;;;;;;6.47;4.30;;;22.70;1.00;;;;;;5070704;28;20617;-71
2023/09/29 08:06:02;;;;;;;5.03;3.90;;;23.10;1.00;;;;;;5072246;28;20692;-70
2023/09/29 08:08:28;;;;;;;6.47;4.73;;;23.20;1.00;;;;;;5072052;28;20174;-71
2023/09/29 08:10:54;;;;;;;10.93;5.00;;;23.50;1.00;;;;;;5070776;28;20461;-71
2023/09/29 08:13:19;;;;;;;6.90;5.00;;;23.50;1.00;;;;;;5071948;28;20648;-69
2023/09/29 08:15:46;;;;;;;7.70;4.90;;;23.30;1.00;;;;;;5070723;28;20664;-71
2023/09/29 08:18:12;;;;;;;6.80;4.90;;;22.90;1.00;;;;;;5071932;28;20177;-70
2023/09/29 08:20:37;;;;;;;7.13;4.17;;;22.50;1.00;;;;;;5071789;28;20777;-70
2023/09/29 08:23:03;;;;;;;7.53;4.83;;;22.50;1.00;;;;;;5071708;28;20254;-71
2023/09/29 08:25:29;;;;;;;9.07;4.23;;;22.30;1.00;;;;;;5071593;28;20182;-72
2023/09/29 08:27:56;;;;;;;5.60;5.00;;;22.30;1.00;;;;;;5072217;28;20231;-71
2023/09/29 08:30:22;;;;;;;8.20;5.20;;;22.40;1.00;;;;;;5071697;28;20832;-71
2023/09/29 08:32:47;;;;;;;14.70;5.80;;;22.90;1.00;;;;;;5071755;28;20412;-69
2023/09/29 08:35:13;;;;;;;6.07;4.70;;;22.70;1.00;;;;;;5071785;28;20181;-71
2023/09/29 08:37:43;;;;;;;14.33;5.40;;;22.50;1.00;;;;;;5071730;28;20173;-71
2023/09/29 08:40:09;;;;;;;10.33;6.47;;;22.30;1.00;;;;;;5071552;28;20239;-71
2023/09/29 08:42:37;;;;;;;7.20;4.70;;;22.20;1.00;;;;;;5071651;28;20454;-71
2023/09/29 08:45:09;;;;;;;6.60;4.60;;;22.30;1.00;;;;;;5071542;28;20899;-70
2023/09/29 08:47:36;;;;;;;5.40;4.90;;;22.50;1.00;;;;;;5071634;28;20464;-71
2023/09/29 08:50:06;;;;;;;7.33;5.07;;;22.90;1.00;;;;;;5071516;28;20435;-70
2023/09/29 08:52:35;;;;;;;7.00;4.30;;;22.80;1.00;;;;;;5071727;28;20408;-70
2023/09/29 08:55:05;;;;;;;7.50;5.07;;;22.90;1.00;;;;;;5072022;28;20412;-71
2023/09/29 08:57:30;;;;;;;6.17;4.77;;;23.30;1.00;;;;;;5075567;28;20508;-71
2023/09/29 08:59:58;;;;;;;4.33;3.93;;;23.50;1.00;;;;;;5075513;28;20974;-70
2023/09/29 09:02:26;;;;;;;5.67;4.20;;;23.70;1.00;;;;;;5075619;28;20173;-71
2023/09/29 09:04:52;;;;;;;5.27;4.77;;;23.90;1.00;;;;;;5075324;28;20453;-70
2023/09/29 09:07:19;;;;;;;7.83;5.33;;;24.00;1.00;;;;;;5075415;28;20463;-71
2023/09/29 09:09:54;;;;;;;7.10;5.00;;;24.00;1.00;;;;;;5075300;28;20779;-70
2023/09/29 09:12:32;;;;;;;4.40;3.87;;;24.00;1.00;;;;;;5075442;28;20403;-71
2023/09/29 09:14:58;;;;;;;6.23;5.20;;;24.10;1.00;;;;;;5075422;28;20956;-71
2023/09/29 09:17:24;;;;;;;6.03;4.70;;;24.00;1.00;;;;;;5075253;28;20412;-71
2023/09/29 09:19:54;;;;;;;6.00;4.07;;;24.00;1.00;;;;;;5075046;28;20672;-71
2023/09/29 09:22:25;;;;;;;6.30;5.47;;;24.00;1.00;;;;;;5074886;28;20427;-71
2023/09/29 09:25:00;;;;;;;5.17;4.03;;;23.90;1.00;;;;;;5074902;28;20756;-71
2023/09/29 09:27:26;;;;;;;7.00;3.67;;;24.00;1.00;;;;;;5074872;28;20827;-71
2023/09/29 09:29:52;;;;;;;6.30;4.00;;;24.00;1.00;;;;;;5073487;28;20443;-71
2023/09/29 09:32:26;;;;;;;9.90;5.00;;;24.10;1.00;;;;;;5074997;28;20486;-70
2023/09/29 09:34:52;;;;;;;5.53;4.93;;;24.20;1.00;;;;;;5074584;28;20403;-71
2023/09/29 09:37:24;;;;;;;5.13;4.47;;;24.30;1.00;;;;;;5074943;28;20420;-71
2023/09/29 09:39:51;;;;;;;8.43;4.27;;;24.30;1.00;;;;;;5074725;28;20482;-71
2023/09/29 09:42:18;;;;;;;5.53;4.30;;;24.30;1.00;;;;;;5074779;28;20411;-70
2023/09/29 09:44:43;;;;;;;7.30;3.87;;;24.50;1.00;;;;;;5074668;28;20437;-71
2023/09/29 09:47:14;;;;;;;4.37;3.70;;;24.60;1.00;;;;;;5073343;28;20464;-70
2023/09/29 09:49:48;;;;;;;4.80;4.30;;;24.80;1.00;;;;;;5074497;28;20177;-70
2023/09/29 09:52:25;;;;;;;5.87;4.53;;;25.00;1.00;;;;;;5074614;28;20408;-70
2023/09/29 09:54:58;;;;;;;8.70;4.33;;;25.10;1.00;;;;;;5074384;28;20439;-70
2023/09/29 09:57:34;;;;;;;4.60;4.13;;;25.20;1.00;;;;;;5074712;28;20411;-70
2023/09/29 10:00:11;;;;;;;3.90;3.60;;;25.40;1.00;;;;;;5074616;28;20435;-70
2023/09/29 10:02:45;;;;;;;5.30;4.10;;;25.60;1.00;;;;;;5074262;28;20634;-70
2023/09/29 10:05:17;;;;;;;3.90;3.60;;;25.80;1.00;;;;;;5074468;28;20412;-71
2023/09/29 10:07:46;;;;;;;6.40;5.17;;;25.90;1.00;;;;;;5073745;28;20459;-71
2023/09/29 10:10:33;;;;;;;4.40;4.00;;;26.10;1.00;;;;;;5072815;28;20463;-69
2023/09/29 10:13:13;;;;;;;11.77;3.70;;;26.10;1.00;;;;;;5074411;28;20489;-70
2023/09/29 10:15:39;;;;;;;4.40;4.00;;;26.30;1.00;;;;;;5073993;28;20404;-71
2023/09/29 10:18:25;;;;;;;4.57;4.17;;;26.60;1.00;;;;;;5074208;28;20412;-71
2023/09/29 10:20:54;;;;;;;4.53;4.13;;;26.70;1.00;;;;;;5073526;28;20493;-70
2023/09/29 10:23:20;;;;;;;4.83;4.00;;;26.70;1.00;;;;;;5074059;28;20404;-70
2023/09/29 10:25:58;;;;;;;4.10;3.63;;;26.80;1.00;;;;;;5073990;28;20412;-70
2023/09/29 10:28:34;;;;;;;7.37;4.70;;;27.00;1.00;;;;;;5074074;28;20487;-70
2023/09/29 10:31:08;;;;;;;4.60;3.90;;;27.10;1.00;;;;;;5073930;28;20440;-69
2023/09/29 10:33:47;;;;;;;4.50;4.10;;;27.30;1.00;;;;;;5073669;28;20400;-71
2023/09/29 10:36:12;;;;;;;4.43;4.00;;;27.50;1.00;;;;;;5074039;28;20414;-70
2023/09/29 10:38:40;;;;;;;14.13;4.93;;;27.50;1.00;;;;;;5073815;28;20759;-69
2023/09/29 10:41:06;;;;;;;4.47;4.17;;;27.50;1.00;;;;;;5073707;28;20326;-70
2023/09/29 10:43:34;;;;;;;4.63;4.20;;;27.60;1.00;;;;;;5073478;28;20911;-70
2023/09/29 10:46:07;;;;;;;4.97;4.50;;;27.60;1.00;;;;;;5072450;28;20201;-71
2023/09/29 10:48:33;;;;;;;3.70;3.40;;;27.70;1.00;;;;;;5073772;28;20412;-70
2023/09/29 10:50:59;;;;;;;5.33;3.80;;;27.90;1.00;;;;;;5073431;28;20420;-71
2023/09/29 10:53:24;;;;;;;3.60;3.30;;;27.90;1.00;;;;;;5071923;28;20891;-70
2023/09/29 10:55:52;;;;;;;4.60;4.03;;;27.90;1.00;;;;;;5073425;28;20255;-71
2023/09/29 10:58:19;;;;;;;4.57;3.77;;;27.90;1.00;;;;;;5073230;28;20169;-71
2023/09/29 11:00:50;;;;;;;4.47;4.17;;;27.80;1.00;;;;;;5073152;28;20435;-71
2023/09/29 11:03:18;;;;;;;4.10;3.80;;;27.90;1.00;;;;;;5073241;28;20907;-71
2023/09/29 11:05:50;;;;;;;4.07;3.77;;;27.90;1.00;;;;;;5072858;28;20474;-70
2023/09/29 11:08:20;;;;;;;4.57;4.17;;;27.80;1.00;;;;;;5073203;28;20414;-70
2023/09/29 11:10:59;;;;;;;4.73;4.17;;;27.70;1.00;;;;;;5071484;28;20448;-71
2023/09/29 11:13:26;;;;;;;4.60;4.10;;;28.00;1.00;;;;;;5072743;28;20799;-70
2023/09/29 11:15:52;;;;;;;4.43;3.90;;;28.20;1.00;;;;;;5072800;28;20408;-70
2023/09/29 11:18:47;;;;;;;4.27;3.87;;;28.20;1.00;;;;;;5070912;28;20426;-70
2023/09/29 11:21:13;;;;;;;5.23;4.63;;;28.30;1.00;;;;;;5069669;28;20447;-70
2023/09/29 11:23:45;;;;;;;4.80;4.40;;;28.40;1.00;;;;;;5072655;28;20404;-71
2023/09/29 11:26:12;;;;;;;6.50;4.83;;;28.50;1.00;;;;;;5072691;28;20198;-70
2023/09/29 11:28:42;;;;;;;4.90;4.33;;;28.60;1.00;;;;;;5072606;28;20419;-70
2023/09/29 11:31:12;;;;;;;5.30;4.90;;;28.40;1.00;;;;;;5071266;28;20513;-70
2023/09/29 11:33:39;;;;;;;7.67;4.47;;;28.40;1.00;;;;;;5072437;28;20779;-71
2023/09/29 11:36:23;;;;;;;4.93;4.47;;;28.40;1.00;;;;;;5072560;28;20408;-70
2023/09/29 11:38:50;;;;;;;6.30;4.80;;;28.40;1.00;;;;;;5072523;28;20448;-70
2023/09/29 11:41:17;;;;;;;5.70;4.87;;;28.50;1.00;;;;;;5072422;28;20497;-70
2023/09/29 11:43:44;;;;;;;5.50;4.87;;;28.50;1.00;;;;;;5072310;28;20439;-71
2023/09/29 11:46:09;;;;;;;7.27;4.70;;;28.70;1.00;;;;;;5072244;28;20448;-71
2023/09/29 11:48:35;;;;;;;4.70;4.20;;;28.90;1.00;;;;;;5072315;28;20400;-70
2023/09/29 11:51:03;;;;;;;4.67;4.17;;;28.70;1.00;;;;;;5072159;28;20189;-70
2023/09/29 11:53:30;;;;;;;4.77;4.37;;;28.60;1.00;;;;;;5072141;28;20408;-70
2023/09/29 11:55:56;;;;;;;8.53;4.47;;;28.70;1.00;;;;;;5072214;28;20811;-71
2023/09/29 11:58:25;;;;;;;4.83;4.43;;;28.90;1.00;;;;;;5072217;28;20443;-71
2023/09/29 12:00:51;;;;;;;5.00;4.60;;;28.70;1.00;;;;;;5072013;28;20429;-71
2023/09/29 12:03:20;;;;;;;4.23;3.87;;;28.90;1.00;;;;;;5072244;28;20420;-71
2023/09/29 12:05:49;;;;;;;7.27;4.67;;;28.80;1.00;;;;;;5072169;28;20915;-71
2023/09/29 12:08:15;;;;;;;4.70;4.03;;;28.80;1.00;;;;;;5072124;28;20427;-71
2023/09/29 12:10:40;;;;;;;4.17;3.87;;;28.80;1.00;;;;;;5071790;28;20447;-71
2023/09/29 12:13:06;;;;;;;8.40;4.93;;;28.80;1.00;;;;;;5071968;28;20203;-71
2023/09/29 12:15:32;;;;;;;6.17;5.57;;;28.80;1.00;;;;;;5071876;28;20170;-71
2023/09/29 12:18:00;;;;;;;4.70;4.30;;;28.70;1.00;;;;;;5071948;28;20400;-71
2023/09/29 12:20:27;;;;;;;4.50;4.20;;;28.70;1.00;;;;;;5071745;28;20186;-71
2023/09/29 12:22:55;;;;;;;5.13;4.70;;;28.80;1.00;;;;;;5072169;28;20404;-71
2023/09/29 12:25:21;;;;;;;4.60;4.20;;;28.90;1.00;;;;;;5071667;28;20487;-71
2023/09/29 12:27:48;;;;;;;4.57;4.10;;;28.80;1.00;;;;;;5071776;28;20840;-71
2023/09/29 12:30:14;;;;;;;6.50;5.03;;;28.60;1.00;;;;;;5071393;28;20477;-70
2023/09/29 12:32:40;;;;;;;5.40;3.97;;;28.60;1.00;;;;;;5071815;28;20802;-72
2023/09/29 12:35:08;;;;;;;6.10;4.50;;;28.70;1.00;;;;;;5071540;28;20216;-72
2023/09/29 12:37:33;;;;;;;13.63;6.70;;;28.80;1.00;;;;;;5071732;28;20408;-71
2023/09/29 12:39:59;;;;;;;5.50;4.87;;;28.90;1.00;;;;;;5070474;28;20808;-71
2023/09/29 12:42:25;;;;;;;4.87;4.47;;;28.90;1.00;;;;;;5070448;28;20644;-71
2023/09/29 12:44:51;;;;;;;5.30;4.83;;;29.00;1.00;;;;;;5071435;28;20174;-72
2023/09/29 12:47:16;;;;;;;5.30;4.40;;;29.00;1.00;;;;;;5071602;28;20836;-71
2023/09/29 12:49:42;;;;;;;4.60;4.03;;;29.00;1.00;;;;;;5071348;28;20174;-70
2023/09/29 12:52:08;;;;;;;5.60;5.00;;;28.90;1.00;;;;;;5071598;28;20174;-72